Bryan, Ohio
Current Conditions -  °F | °C
As of 9:53 AM on Monday 29 Dec 2014 (Local Time) from KDFI Reporting Station
Haze Haze  
Wind Chill: 23°   Ceiling: 3500
Heat Index: 28°   Visibility: 6mi
Dew Point: 24°   Wind: 5mph
Humidity: 85%   Direction: 340°NNW
Pressure: 30.34"   Gusts: NA
Location:  41.47°N, 84.55°W
Report Text: KDFI 291453Z AUTO 34004KT 6SM BR BKN035 M02/M04 A3034 RMK AO2 SLP283 I3000 T10221044 53021
Loading
Personal Weather Stations






























Interactive Weather Map New forecast layout! Learn more

10-Day Weather Forecast

Advertisements
Track Severe Weather on mobile